Washington, DC (20074)

5:58 PM EDT on July 30, 2016 (GMT -0400)
Eckington Pl, NE | | Change Station

Elev 90 ft 38.91 °N, 77.01 °W | Updated 11 seconds ago

Overcast
Overcast
83.9 °F
Feels Like 91 °F
N
9.0
Wind Variable Wind from SE
Gusts 18.0 mph

Today
High -- | Low -- °F
--% Chance of Precip.
Yesterday
High -- | Low -- °F
Precip. -- in
Pressure 29.92 in
Visibility 10.0 miles
Clouds Few 3100 ft
Few 4300 ft
Scattered Clouds 6000 ft
Overcast 25000 ft
Heat Index 91 °F
Dew Point 74 °F
Humidity 71%
Rainfall Not available.
Snow Depth Not available.
6:07 AM 8:20 PM
Waning Crescent, 11% visible
METAR KDCA 302152Z 18017KT 10SM FEW031 FEW043 SCT060 OVC250 29/23 A2992 RMK AO2 SLP132 T02890228
Pressure 29.92 in
Visibility 10.0 miles
Clouds Few 3100 ft
Few 4300 ft
Scattered Clouds 6000 ft
Overcast 25000 ft
Heat Index 91 °F
Dew Point 74 °F
Humidity 71%
Rainfall Not available.
Snow Depth Not available.
6:07 AM 8:20 PM
Waning Crescent, 11% visible
METAR KDCA 302152Z 18017KT 10SM FEW031 FEW043 SCT060 OVC250 29/23 A2992 RMK AO2 SLP132 T02890228

10-Day Weather Forecast

Almanac

Astronomy

Jul. 30, 2016 Rise Set
Actual Time
Civil Twilight
Nautical Twilight
Astronomical Twilight
Moon
Length of Visible Light
Length of Day
Tomorrow will be .
, % of the Moon is Illuminated

Today's Extremes

State Highs State Lows

Community

WunderPhotos

Upload Photos

1,928,657 photos uploaded!

WunderBlog® & News

Nearby

Air Quality

  Air Quality AQ Index Pollutant
Not available.

Snow Depth

Station Depth Elevation

Earthquake Activity

City Distance Mag. Time & Date
Minimum magnitude displayed is 2.5.

Coastal Water Temperatures

Place Temperature

Stations

Nearby Weather Stations

Station Location Temp. Windchill Dew Point Humidity Wind Precip. Elev Updated Type
                   

Watches & Warnings

There are currently no watches in effect.